Time;durP1;ratioP1;P1;durP2;ratioP2;P2;SDS_P1;SDS_P2;PMS_P1;PMS_P2;Temp;Humidity;BMP_temperature;BMP_pressure;BME280_temperature;BME280_humidity;BME280_pressure;Samples;Min_cycle;Max_cycle;Signal;HPM_P1;HPM_P2
2023/01/02 00:01:03;;;;;;;0.40;0.40;;;;;;;17.31;45.91;96682.66;5068254;28;20213;-78
2023/01/02 00:03:30;;;;;;;0.43;0.43;;;;;;;17.26;46.08;96674.47;5069750;28;20262;-78
2023/01/02 00:05:57;;;;;;;0.40;0.40;;;;;;;17.29;45.53;96688.38;5073052;28;20207;-78
2023/01/02 00:08:24;;;;;;;0.50;0.50;;;;;;;17.23;46.18;96664.06;5068889;28;20236;-77
2023/01/02 00:10:51;;;;;;;0.50;0.50;;;;;;;17.26;46.28;96680.75;5065859;28;20217;-77
2023/01/02 00:13:18;;;;;;;0.47;0.47;;;;;;;17.23;45.50;96653.16;5054833;28;20213;-78
2023/01/02 00:15:45;;;;;;;0.40;0.40;;;;;;;17.35;44.87;96660.03;5067245;28;20198;-78
2023/01/02 00:18:14;;;;;;;0.40;0.40;;;;;;;17.29;45.06;96672.00;5064473;28;20296;-78
2023/01/02 00:20:41;;;;;;;0.40;0.40;;;;;;;17.34;45.44;96663.88;5062773;28;20273;-78
2023/01/02 00:23:09;;;;;;;0.50;0.50;;;;;;;17.34;44.18;96652.94;5099787;28;20208;-78
2023/01/02 00:25:36;;;;;;;0.40;0.40;;;;;;;17.40;44.43;96654.59;5062709;28;20206;-78
2023/01/02 00:28:03;;;;;;;0.40;0.40;;;;;;;17.35;45.22;96654.56;5068210;28;20193;-78
2023/01/02 00:30:30;;;;;;;0.50;0.50;;;;;;;17.27;45.69;96671.44;5067494;28;20205;-78
2023/01/02 00:32:58;;;;;;;1.70;0.50;;;;;;;17.24;45.50;96638.41;5067617;28;20204;-78
2023/01/02 00:35:26;;;;;;;0.40;0.40;;;;;;;17.22;45.42;96616.03;5067040;28;20194;-78
2023/01/02 00:37:53;;;;;;;0.50;0.43;;;;;;;17.23;45.52;96644.97;5068035;28;20255;-78
2023/01/02 00:40:20;;;;;;;0.40;0.40;;;;;;;17.23;45.43;96637.59;5065205;28;20228;-78
2023/01/02 00:42:47;;;;;;;0.40;0.40;;;;;;;17.34;44.83;96636.56;5090535;28;20197;-78
2023/01/02 00:45:14;;;;;;;0.40;0.40;;;;;;;17.37;44.17;96630.56;5069825;28;20197;-78
2023/01/02 00:47:41;;;;;;;0.40;0.40;;;;;;;17.18;45.53;96604.81;5065739;28;20198;-78
2023/01/02 00:50:08;;;;;;;1.60;0.40;;;;;;;17.11;45.87;96625.25;5066609;28;20207;-78
2023/01/02 00:52:37;;;;;;;0.40;0.40;;;;;;;17.15;44.64;96621.72;5071335;28;20206;-78
2023/01/02 00:55:05;;;;;;;0.40;0.40;;;;;;;17.21;44.82;96607.03;5074243;28;20201;-78
2023/01/02 00:57:32;;;;;;;0.43;0.43;;;;;;;17.27;45.08;96619.59;5101817;28;20215;-78
2023/01/02 01:00:00;;;;;;;0.50;0.50;;;;;;;17.25;44.55;96627.25;5066739;28;20224;-78
2023/01/02 01:02:27;;;;;;;0.40;0.40;;;;;;;17.26;45.12;96612.50;5064823;28;20195;-78
2023/01/02 01:04:54;;;;;;;0.40;0.40;;;;;;;17.15;45.16;96627.19;5068801;28;20194;-78
2023/01/02 01:07:21;;;;;;;0.40;0.40;;;;;;;17.03;45.73;96602.00;5073016;28;20295;-78
2023/01/02 01:09:49;;;;;;;0.40;0.40;;;;;;;17.06;45.81;96606.13;5068449;28;20198;-78
2023/01/02 01:12:16;;;;;;;0.40;0.40;;;;;;;17.04;45.71;96620.03;5105457;28;20206;-78
2023/01/02 01:14:44;;;;;;;0.40;0.40;;;;;;;17.00;45.98;96618.94;5066292;28;20225;-78
2023/01/02 01:17:11;;;;;;;0.50;0.50;;;;;;;17.15;44.61;96624.47;5065726;28;20222;-78
2023/01/02 01:19:38;;;;;;;0.43;0.43;;;;;;;17.13;44.83;96634.81;5069841;28;20288;-78
2023/01/02 01:22:07;;;;;;;0.50;0.50;;;;;;;17.13;45.29;96612.97;5102607;28;20201;-79
2023/01/02 01:24:34;;;;;;;0.40;0.40;;;;;;;17.15;44.64;96605.34;5066798;28;20193;-78
2023/01/02 01:27:02;;;;;;;0.40;0.40;;;;;;;17.32;44.37;96599.69;5065046;28;20264;-78
2023/01/02 01:29:29;;;;;;;0.40;0.40;;;;;;;17.35;43.71;96596.44;5064684;28;20209;-78
2023/01/02 01:31:56;;;;;;;0.40;0.40;;;;;;;17.29;44.17;96609.22;5071187;28;20197;-79
2023/01/02 01:34:23;;;;;;;0.50;0.50;;;;;;;17.28;44.04;96614.97;5072497;28;20279;-77
2023/01/02 01:36:50;;;;;;;0.50;0.50;;;;;;;17.42;43.87;96609.84;5103774;28;20291;-78
2023/01/02 01:39:17;;;;;;;0.50;0.50;;;;;;;17.49;42.90;96603.03;5070784;28;20211;-77
2023/01/02 01:41:46;;;;;;;0.50;0.50;;;;;;;17.41;44.16;96619.94;5066675;28;20222;-78
2023/01/02 01:44:42;;;;;;;0.50;0.50;;;;;;;17.24;44.71;96617.41;5059345;28;20212;-78
2023/01/02 01:47:21;;;;;;;0.50;0.50;;;;;;;17.24;44.13;96625.59;5064784;28;20213;-78
2023/01/02 01:49:51;;;;;;;0.40;0.40;;;;;;;17.40;43.45;96608.19;5071285;28;20202;-78
2023/01/02 01:52:22;;;;;;;0.40;0.40;;;;;;;17.38;43.73;96604.91;5062642;28;20213;-78
2023/01/02 01:54:55;;;;;;;0.40;0.40;;;;;;;17.39;44.20;96613.91;5102944;28;20225;-78
2023/01/02 01:57:29;;;;;;;0.40;0.40;;;;;;;17.27;43.99;96603.22;5071363;28;20213;-78
2023/01/02 02:00:00;;;;;;;0.50;0.50;;;;;;;17.28;44.51;96604.03;5071408;28;20201;-78
2023/01/02 02:02:29;;;;;;;0.40;0.40;;;;;;;17.39;43.77;96595.63;5069820;28;20209;-78
2023/01/02 02:04:58;;;;;;;1.23;0.50;;;;;;;17.55;42.19;96592.94;5064952;28;20202;-76
2023/01/02 02:07:26;;;;;;;0.57;0.50;;;;;;;17.62;42.33;96609.94;5104430;28;20269;-77
2023/01/02 02:09:57;;;;;;;0.50;0.50;;;;;;;17.57;42.67;96613.44;5072062;28;20193;-78
2023/01/02 02:12:25;;;;;;;0.40;0.40;;;;;;;17.56;42.83;96602.78;5070654;28;20229;-77
2023/01/02 02:14:52;;;;;;;0.60;0.60;;;;;;;17.40;43.58;96596.47;5071943;28;20197;-78
2023/01/02 02:17:32;;;;;;;0.50;0.50;;;;;;;17.40;43.01;96597.28;5070602;28;20249;-78
2023/01/02 02:20:20;;;;;;;1.90;0.60;;;;;;;17.37;43.44;96596.97;5069826;28;20224;-77
2023/01/02 02:23:20;;;;;;;0.50;0.50;;;;;;;17.43;42.61;96595.13;5097207;28;20194;-78
2023/01/02 02:26:11;;;;;;;0.40;0.40;;;;;;;17.45;43.31;96598.38;5049039;28;20207;-77
2023/01/02 02:29:11;;;;;;;0.50;0.50;;;;;;;17.56;42.42;96600.06;5092851;28;20209;-77
2023/01/02 02:31:48;;;;;;;1.30;0.50;;;;;;;17.47;43.18;96594.28;5080375;28;20202;-78
2023/01/02 02:34:23;;;;;;;0.50;0.50;;;;;;;17.43;43.01;96606.03;5070407;28;20216;-77
2023/01/02 02:36:58;;;;;;;0.50;0.50;;;;;;;17.57;41.44;96590.78;5070585;28;20220;-78
2023/01/02 02:39:39;;;;;;;0.50;0.50;;;;;;;17.42;42.49;96582.53;5069112;28;20273;-78
2023/01/02 02:42:14;;;;;;;0.70;0.50;;;;;;;17.40;42.36;96593.72;5063051;28;20229;-78
2023/01/02 02:44:52;;;;;;;0.60;0.60;;;;;;;17.29;43.24;96571.03;5069766;28;20196;-78
2023/01/02 02:47:27;;;;;;;0.50;0.50;;;;;;;17.19;42.94;96570.97;5067662;28;20230;-78
2023/01/02 02:49:59;;;;;;;0.50;0.50;;;;;;;17.24;42.63;96581.94;5102534;28;20197;-78
2023/01/02 02:52:32;;;;;;;0.50;0.50;;;;;;;17.38;41.54;96572.16;5084627;28;20198;-78
2023/01/02 02:55:07;;;;;;;1.47;0.60;;;;;;;17.45;41.57;96591.00;5066887;28;20202;-78
2023/01/02 02:57:36;;;;;;;0.50;0.50;;;;;;;17.47;40.89;96579.81;5068769;28;20279;-78
2023/01/02 03:00:05;;;;;;;0.70;0.70;;;;;;;17.39;41.81;96541.03;5063544;28;20194;-76
2023/01/02 03:02:34;;;;;;;0.83;0.50;;;;;;;17.42;41.06;96577.09;5065845;28;20209;-78
2023/01/02 03:05:04;;;;;;;0.50;0.50;;;;;;;17.39;41.19;96576.53;5064537;28;20255;-78
2023/01/02 03:07:39;;;;;;;0.60;0.60;;;;;;;17.36;41.85;96579.78;5067813;28;20255;-78
2023/01/02 03:10:20;;;;;;;0.60;0.60;;;;;;;17.42;40.25;96582.53;5069282;28;20245;-77
2023/01/02 03:12:55;;;;;;;0.70;0.70;;;;;;;17.48;40.19;96586.94;5069697;28;20212;-77
2023/01/02 03:15:28;;;;;;;0.60;0.60;;;;;;;17.53;40.35;96578.75;5068597;28;20209;-77
2023/01/02 03:18:09;;;;;;;1.00;0.93;;;;;;;17.54;40.18;96569.47;5064048;28;20244;-77
2023/01/02 03:20:41;;;;;;;1.20;0.80;;;;;;;17.48;40.28;96571.38;5100488;28;20213;-78
2023/01/02 03:23:13;;;;;;;0.60;0.60;;;;;;;17.44;40.27;96596.75;5102725;28;20205;-79
2023/01/02 03:25:42;;;;;;;1.50;0.70;;;;;;;17.42;40.40;96583.38;5083360;28;20276;-78
2023/01/02 03:28:11;;;;;;;1.40;0.70;;;;;;;17.44;40.39;96597.53;5068729;28;20212;-77
2023/01/02 03:30:41;;;;;;;0.60;0.60;;;;;;;17.53;39.43;96600.59;5069512;28;20288;-78
2023/01/02 03:33:13;;;;;;;0.60;0.60;;;;;;;17.55;39.31;96593.78;5068070;28;20209;-78
2023/01/02 03:35:45;;;;;;;1.07;0.70;;;;;;;17.45;40.07;96598.38;5099671;28;20200;-77
2023/01/02 03:38:16;;;;;;;0.83;0.60;;;;;;;17.25;40.53;96594.50;5101010;28;20201;-77
2023/01/02 03:40:47;;;;;;;0.43;0.43;;;;;;;17.32;40.11;96600.53;5056291;28;20252;-77
2023/01/02 03:43:18;;;;;;;0.50;0.50;;;;;;;17.22;41.65;96608.66;5070560;28;20200;-77
2023/01/02 03:45:50;;;;;;;0.60;0.60;;;;;;;17.30;39.86;96590.94;5098280;28;20225;-78
2023/01/02 03:48:29;;;;;;;0.57;0.57;;;;;;;17.43;39.55;96595.13;5063468;28;20233;-78
2023/01/02 03:50:59;;;;;;;0.60;0.60;;;;;;;17.43;39.94;96614.22;5094382;28;20208;-76
2023/01/02 03:53:27;;;;;;;0.97;0.60;;;;;;;17.32;40.65;96594.25;5063282;28;20259;-78
2023/01/02 03:56:01;;;;;;;2.07;0.80;;;;;;;17.31;41.12;96603.50;5074566;28;20205;-77
2023/01/02 03:58:39;;;;;;;0.60;0.60;;;;;;;17.23;40.97;96596.66;5064544;28;20197;-78
2023/01/02 04:01:10;;;;;;;0.53;0.50;;;;;;;17.16;41.81;96600.72;5062629;28;20275;-77
2023/01/02 04:03:46;;;;;;;0.57;0.57;;;;;;;17.09;41.74;96590.06;5067849;28;20258;-78
2023/01/02 04:06:16;;;;;;;0.50;0.50;;;;;;;17.07;41.73;96589.50;5064459;28;20201;-79
2023/01/02 04:08:49;;;;;;;0.50;0.50;;;;;;;17.08;42.02;96595.78;5091497;28;20292;-78
2023/01/02 04:11:20;;;;;;;0.40;0.40;;;;;;;17.05;42.55;96609.94;5065039;28;20221;-78
2023/01/02 04:13:52;;;;;;;0.50;0.50;;;;;;;16.94;42.79;96604.41;5065542;28;20214;-78
2023/01/02 04:16:22;;;;;;;0.50;0.50;;;;;;;17.07;42.08;96603.13;5068280;28;20232;-78
2023/01/02 04:18:54;;;;;;;0.50;0.50;;;;;;;17.15;42.32;96594.44;5059337;28;20229;-78
2023/01/02 04:21:25;;;;;;;0.40;0.40;;;;;;;17.07;41.94;96584.03;5056344;28;20319;-78
2023/01/02 04:23:59;;;;;;;0.50;0.50;;;;;;;17.06;42.36;96585.13;5066423;28;20308;-77
2023/01/02 04:26:31;;;;;;;0.40;0.40;;;;;;;17.02;42.67;96578.53;5068402;28;20290;-78
2023/01/02 04:28:59;;;;;;;0.50;0.50;;;;;;;16.96;42.41;96587.78;5066159;28;20198;-77
2023/01/02 04:31:33;;;;;;;0.60;0.60;;;;;;;16.92;42.60;96573.88;5069045;28;20208;-78
2023/01/02 04:34:03;;;;;;;0.50;0.50;;;;;;;17.01;42.25;96593.28;5101101;28;20213;-78
2023/01/02 04:36:31;;;;;;;0.50;0.50;;;;;;;17.06;42.06;96589.75;5064194;28;20295;-78
2023/01/02 04:38:58;;;;;;;0.40;0.40;;;;;;;17.06;42.62;96581.56;5083133;28;20212;-78
2023/01/02 04:41:26;;;;;;;0.50;0.50;;;;;;;16.94;42.48;96590.78;5062348;28;20313;-77
2023/01/02 04:43:54;;;;;;;0.43;0.43;;;;;;;16.85;43.49;96573.28;5066265;28;20241;-78
2023/01/02 04:46:21;;;;;;;0.80;0.80;;;;;;;16.90;42.51;96583.41;5103095;28;20251;-77
2023/01/02 04:48:48;;;;;;;0.40;0.40;;;;;;;16.78;43.18;96572.69;5065837;28;20201;-78
2023/01/02 04:51:17;;;;;;;0.50;0.50;;;;;;;17.01;42.06;96576.94;5064588;28;20197;-77
2023/01/02 04:53:44;;;;;;;0.60;0.60;;;;;;;16.96;42.90;96579.59;5067315;28;20201;-77
2023/01/02 04:56:12;;;;;;;0.50;0.50;;;;;;;16.94;42.37;96577.13;5066016;28;20265;-77
2023/01/02 04:58:38;;;;;;;0.50;0.50;;;;;;;16.98;42.55;96572.81;5064815;28;20190;-77
2023/01/02 05:01:08;;;;;;;0.50;0.50;;;;;;;16.98;42.17;96586.44;5068316;28;20231;-76
2023/01/02 05:03:39;;;;;;;0.50;0.50;;;;;;;17.05;42.51;96577.19;5073369;28;20232;-76
2023/01/02 05:06:06;;;;;;;0.50;0.50;;;;;;;16.94;42.83;96584.50;5071115;28;20293;-77
2023/01/02 05:08:35;;;;;;;0.50;0.50;;;;;;;16.75;43.96;96565.06;5061609;28;20208;-76
2023/01/02 05:11:06;;;;;;;0.60;0.60;;;;;;;16.69;43.94;96582.44;5063506;28;20580;-76
2023/01/02 05:13:33;;;;;;;0.50;0.50;;;;;;;16.61;45.02;96577.50;5070112;28;20210;-77
2023/01/02 05:16:00;;;;;;;0.40;0.40;;;;;;;16.63;45.16;96583.50;5068199;28;20201;-76
2023/01/02 05:18:28;;;;;;;0.50;0.50;;;;;;;16.62;44.82;96576.41;5064916;28;20245;-77
2023/01/02 05:21:00;;;;;;;0.40;0.40;;;;;;;16.62;44.56;96590.88;5067777;28;20259;-77
2023/01/02 05:26:14;;;;;;;0.50;0.50;;;;;;;16.74;44.45;96589.84;5064512;28;20229;-76
2023/01/02 05:28:40;;;;;;;0.50;0.50;;;;;;;16.76;43.77;96590.44;5071814;28;20197;-77
2023/01/02 05:31:08;;;;;;;1.77;0.50;;;;;;;16.74;43.86;96592.59;5072130;28;20233;-77
2023/01/02 05:33:35;;;;;;;0.50;0.50;;;;;;;16.72;44.35;96594.75;5068692;28;20213;-77
2023/01/02 05:36:05;;;;;;;0.40;0.40;;;;;;;16.71;44.67;96598.56;5103442;28;20218;-76
2023/01/02 05:38:32;;;;;;;0.50;0.50;;;;;;;16.67;44.79;96594.72;5067418;28;20206;-77
2023/01/02 05:41:01;;;;;;;1.63;0.60;;;;;;;16.73;44.80;96620.94;5063579;28;20217;-78
2023/01/02 05:43:31;;;;;;;0.43;0.43;;;;;;;16.82;43.46;96600.28;5091898;28;20202;-77
2023/01/02 05:45:58;;;;;;;0.50;0.50;;;;;;;16.80;43.97;96594.25;5097590;28;20198;-77
2023/01/02 05:48:25;;;;;;;0.50;0.50;;;;;;;16.74;44.47;96603.50;5082641;28;20205;-77
2023/01/02 05:50:53;;;;;;;0.40;0.40;;;;;;;16.79;44.07;96592.59;5060427;28;20202;-77
2023/01/02 05:53:19;;;;;;;0.40;0.40;;;;;;;16.96;42.97;96606.88;5071104;28;20217;-77
2023/01/02 05:55:46;;;;;;;0.43;0.43;;;;;;;16.88;44.25;96615.56;5058317;28;20228;-77
2023/01/02 05:58:13;;;;;;;0.50;0.50;;;;;;;16.80;44.34;96605.16;5069262;28;20204;-77
2023/01/02 06:00:42;;;;;;;0.50;0.50;;;;;;;16.69;44.93;96603.44;5068979;28;20209;-76
2023/01/02 06:03:09;;;;;;;0.50;0.50;;;;;;;16.72;44.55;96601.03;5070148;28;20222;-76
2023/01/02 06:05:38;;;;;;;0.50;0.50;;;;;;;16.79;43.96;96603.50;5071185;28;20209;-77
2023/01/02 06:08:05;;;;;;;0.50;0.50;;;;;;;16.77;44.46;96597.50;5069213;28;20258;-77
2023/01/02 06:10:32;;;;;;;0.50;0.50;;;;;;;16.73;44.10;96599.94;5104428;28;20253;-77
2023/01/02 06:12:59;;;;;;;1.70;0.40;;;;;;;16.75;44.37;96599.69;5069329;28;20228;-77
2023/01/02 06:15:26;;;;;;;0.40;0.40;;;;;;;16.68;43.65;96583.53;5066588;28;20264;-76
2023/01/02 06:17:55;;;;;;;0.50;0.50;;;;;;;16.76;44.38;96598.59;5066323;28;20229;-78
2023/01/02 06:20:22;;;;;;;2.30;0.60;;;;;;;16.68;44.53;96607.25;5067720;28;20236;-77
2023/01/02 06:22:49;;;;;;;0.40;0.40;;;;;;;16.52;44.88;96590.75;5070471;28;20243;-76
2023/01/02 06:25:16;;;;;;;0.50;0.50;;;;;;;16.62;43.76;96601.78;5093114;28;20194;-77
2023/01/02 06:27:43;;;;;;;0.50;0.50;;;;;;;16.62;44.08;96601.78;5058670;28;20204;-77
2023/01/02 06:30:10;;;;;;;0.43;0.43;;;;;;;16.76;43.76;96612.25;5061730;28;20209;-77
2023/01/02 06:32:37;;;;;;;0.33;0.33;;;;;;;16.61;44.26;96605.56;5101520;28;20194;-76
2023/01/02 06:35:09;;;;;;;0.40;0.40;;;;;;;16.69;43.34;96604.25;5069875;28;20209;-77
2023/01/02 06:37:36;;;;;;;1.20;0.50;;;;;;;16.69;44.02;96600.72;5072467;28;20209;-76
2023/01/02 06:40:03;;;;;;;0.50;0.50;;;;;;;16.63;44.08;96597.97;5065764;28;20209;-77
2023/01/02 06:42:30;;;;;;;0.53;0.53;;;;;;;16.63;43.80;96597.97;5069327;28;20245;-76
2023/01/02 06:44:57;;;;;;;0.50;0.50;;;;;;;16.76;43.14;96623.16;5067924;28;20225;-77
2023/01/02 06:47:24;;;;;;;0.50;0.50;;;;;;;16.74;43.67;96606.22;5069767;28;20211;-76
2023/01/02 06:49:51;;;;;;;0.40;0.40;;;;;;;16.75;43.27;96616.88;5069019;28;20265;-77
2023/01/02 06:52:19;;;;;;;0.97;0.53;;;;;;;16.80;42.70;96613.34;5102896;28;20198;-77
2023/01/02 06:54:46;;;;;;;0.40;0.40;;;;;;;16.68;44.36;96602.63;5066123;28;20214;-76
2023/01/02 06:57:13;;;;;;;0.50;0.50;;;;;;;16.47;44.65;96615.25;5066351;28;20201;-76
2023/01/02 06:59:41;;;;;;;0.50;0.50;;;;;;;16.69;43.42;96619.78;5069977;28;20202;-76
2023/01/02 07:02:10;;;;;;;0.50;0.50;;;;;;;16.64;43.77;96620.59;5067173;28;20232;-77
2023/01/02 07:04:38;;;;;;;0.50;0.50;;;;;;;16.74;42.81;96633.47;5068636;28;20189;-77
2023/01/02 07:07:08;;;;;;;0.50;0.50;;;;;;;16.68;43.23;96618.97;5066572;28;20201;-76
2023/01/02 07:09:37;;;;;;;0.50;0.50;;;;;;;16.72;43.45;96622.00;5062017;28;20206;-77
2023/01/02 07:12:05;;;;;;;0.40;0.40;;;;;;;16.62;43.84;96637.22;5066856;28;20228;-78
2023/01/02 07:14:32;;;;;;;0.60;0.60;;;;;;;16.50;44.42;96638.47;5056507;28;20201;-77
2023/01/02 07:16:59;;;;;;;0.50;0.50;;;;;;;16.56;43.82;96635.50;5065271;28;20201;-78
2023/01/02 07:19:26;;;;;;;0.50;0.50;;;;;;;16.54;43.49;96615.84;5066128;28;20238;-76
2023/01/02 07:21:53;;;;;;;0.50;0.50;;;;;;;16.61;43.12;96627.38;5066650;28;20214;-77
2023/01/02 07:24:20;;;;;;;0.50;0.50;;;;;;;16.61;44.01;96646.47;5066135;28;20224;-77
2023/01/02 07:26:48;;;;;;;0.50;0.50;;;;;;;16.56;44.02;96642.88;5062531;28;20202;-77
2023/01/02 07:29:15;;;;;;;0.50;0.50;;;;;;;16.56;43.45;96629.22;5067047;28;20343;-77
2023/01/02 07:31:42;;;;;;;1.30;0.50;;;;;;;16.59;43.92;96640.41;5063456;28;20194;-77
2023/01/02 07:34:09;;;;;;;0.43;0.43;;;;;;;16.62;43.13;96645.41;5067205;28;20217;-76
2023/01/02 07:36:36;;;;;;;0.50;0.50;;;;;;;16.72;43.08;96632.91;5066321;28;20275;-76
2023/01/02 07:39:03;;;;;;;0.60;0.60;;;;;;;16.68;43.28;96642.69;5065408;28;20197;-77
2023/01/02 07:41:30;;;;;;;0.60;0.60;;;;;;;16.67;43.20;96643.81;5061331;28;20204;-77
2023/01/02 07:43:58;;;;;;;0.60;0.60;;;;;;;16.68;43.08;96650.88;5064765;28;20226;-77
2023/01/02 07:46:25;;;;;;;0.50;0.50;;;;;;;16.67;42.78;96665.63;5066385;28;20193;-77
2023/01/02 07:48:53;;;;;;;0.50;0.50;;;;;;;16.81;41.30;96654.00;5067567;28;20212;-77
2023/01/02 07:51:20;;;;;;;0.60;0.60;;;;;;;16.84;41.65;96650.72;5066664;28;20206;-76
2023/01/02 07:53:47;;;;;;;0.57;0.57;;;;;;;16.90;41.78;96657.06;5062395;28;20248;-77
2023/01/02 07:56:14;;;;;;;0.50;0.50;;;;;;;16.84;41.52;96645.25;5069309;28;20212;-76
2023/01/02 07:58:41;;;;;;;0.60;0.60;;;;;;;16.85;42.07;96648.81;5066591;28;20199;-76
2023/01/02 08:01:12;;;;;;;0.60;0.60;;;;;;;16.76;41.65;96650.41;5060752;28;20197;-78
2023/01/02 08:03:40;;;;;;;0.50;0.50;;;;;;;16.96;41.11;96647.81;5064771;28;20219;-78
2023/01/02 08:06:09;;;;;;;0.50;0.50;;;;;;;16.92;41.16;96635.78;5101330;28;20225;-77
2023/01/02 08:08:36;;;;;;;0.60;0.60;;;;;;;16.88;41.79;96638.22;5095515;28;20276;-78
2023/01/02 08:11:05;;;;;;;0.60;0.60;;;;;;;16.92;41.55;96649.44;5076975;28;20233;-79
2023/01/02 08:13:32;;;;;;;0.60;0.60;;;;;;;16.84;41.43;96630.84;5090824;28;20207;-78
2023/01/02 08:16:04;;;;;;;0.60;0.60;;;;;;;16.82;42.76;96660.25;5065978;28;20208;-78
2023/01/02 08:18:32;;;;;;;0.50;0.50;;;;;;;16.88;41.66;96661.94;5061711;28;20233;-77
2023/01/02 08:20:59;;;;;;;0.50;0.50;;;;;;;16.84;41.76;96652.66;5065943;28;20212;-77
2023/01/02 08:23:27;;;;;;;0.60;0.60;;;;;;;16.80;41.88;96657.78;5058752;28;20312;-78
2023/01/02 08:25:57;;;;;;;0.60;0.60;;;;;;;16.89;41.37;96655.41;5064175;28;20191;-77
2023/01/02 08:28:24;;;;;;;0.73;0.70;;;;;;;16.94;41.42;96674.50;5057428;28;20204;-79
2023/01/02 08:30:51;;;;;;;0.60;0.60;;;;;;;16.87;41.68;96674.75;5060856;28;20202;-77
2023/01/02 08:33:19;;;;;;;0.53;0.53;;;;;;;16.86;40.71;96661.38;5073971;28;20248;-77
2023/01/02 08:35:47;;;;;;;0.93;0.60;;;;;;;16.95;41.72;96681.63;5068895;28;20193;-78
2023/01/02 08:38:14;;;;;;;0.50;0.50;;;;;;;16.89;41.36;96671.75;5101900;28;20204;-77
2023/01/02 08:40:41;;;;;;;0.50;0.50;;;;;;;16.97;41.14;96680.28;5065196;28;20205;-77
2023/01/02 08:43:09;;;;;;;0.50;0.50;;;;;;;17.04;40.80;96677.31;5092844;28;20222;-78
2023/01/02 08:45:36;;;;;;;0.93;0.63;;;;;;;17.08;40.54;96696.72;5064613;28;20224;-78
2023/01/02 08:48:03;;;;;;;0.50;0.50;;;;;;;17.01;41.49;96696.97;5068147;28;20323;-78
2023/01/02 08:50:30;;;;;;;0.60;0.60;;;;;;;16.98;40.65;96686.56;5101799;28;20359;-77
2023/01/02 08:52:59;;;;;;;0.60;0.60;;;;;;;17.02;40.53;96701.31;5069505;28;20197;-78
2023/01/02 08:55:26;;;;;;;0.60;0.60;;;;;;;17.06;40.71;96699.72;5065155;28;20201;-77
2023/01/02 08:57:53;;;;;;;0.50;0.50;;;;;;;17.07;40.70;96728.63;5067236;28;20209;-77
2023/01/02 09:00:20;;;;;;;0.60;0.60;;;;;;;17.02;40.74;96709.50;5064004;28;20208;-77
2023/01/02 09:02:47;;;;;;;0.60;0.60;;;;;;;17.02;41.12;96712.22;5055338;28;20308;-77
2023/01/02 09:05:14;;;;;;;0.50;0.50;;;;;;;17.11;40.59;96731.66;5072349;28;20197;-78
2023/01/02 09:07:42;;;;;;;0.60;0.60;;;;;;;16.97;41.11;96723.09;5067842;28;20209;-77
2023/01/02 09:10:11;;;;;;;0.60;0.60;;;;;;;16.93;41.91;96709.16;5067065;28;20285;-78
2023/01/02 09:12:38;;;;;;;0.63;0.63;;;;;;;17.03;40.80;96717.41;5062255;28;20201;-77
2023/01/02 09:15:06;;;;;;;0.50;0.50;;;;;;;17.05;40.98;96730.81;5063694;28;20226;-77
2023/01/02 09:17:33;;;;;;;0.60;0.60;;;;;;;17.00;41.24;96725.31;5068294;28;20232;-77
2023/01/02 09:20:00;;;;;;;0.60;0.60;;;;;;;17.10;40.23;96739.00;5065052;28;20198;-77
2023/01/02 09:22:27;;;;;;;0.70;0.70;;;;;;;17.12;40.63;96730.56;5064414;28;20227;-76
2023/01/02 09:24:53;;;;;;;0.60;0.60;;;;;;;17.09;41.28;96726.47;5071093;28;20197;-76
2023/01/02 09:27:22;;;;;;;0.93;0.70;;;;;;;17.10;40.86;96732.75;5070428;28;20201;-77
2023/01/02 09:29:49;;;;;;;0.77;0.57;;;;;;;17.15;40.47;96736.34;5068517;28;20202;-77
2023/01/02 09:32:16;;;;;;;0.60;0.60;;;;;;;17.20;40.11;96728.16;5071490;28;20205;-77
2023/01/02 09:34:49;;;;;;;0.50;0.50;;;;;;;17.18;40.32;96741.25;5071363;28;20217;-76
2023/01/02 09:37:16;;;;;;;0.60;0.60;;;;;;;17.16;40.66;96740.72;5069752;28;20286;-77
2023/01/02 09:39:43;;;;;;;0.60;0.60;;;;;;;17.12;40.34;96731.38;5068071;28;20296;-77
2023/01/02 09:42:14;;;;;;;1.33;0.70;;;;;;;17.08;40.47;96726.72;5068051;28;20225;-77
2023/01/02 09:44:46;;;;;;;0.70;0.70;;;;;;;17.13;39.84;96726.75;5059511;28;20300;-76
2023/01/02 09:47:17;;;;;;;0.60;0.60;;;;;;;17.18;39.68;96733.06;5070126;28;20198;-76
2023/01/02 09:49:48;;;;;;;1.07;0.80;;;;;;;17.26;39.44;96731.78;5063610;28;20209;-77
2023/01/02 09:52:20;;;;;;;0.60;0.60;;;;;;;17.21;39.44;96707.16;5065583;28;20209;-76
2023/01/02 09:54:47;;;;;;;0.50;0.50;;;;;;;17.14;40.38;96726.50;5065615;28;20212;-76
2023/01/02 09:57:30;;;;;;;0.60;0.60;;;;;;;17.19;39.78;96729.25;5063936;28;20213;-76
2023/01/02 10:00:04;;;;;;;0.63;0.60;;;;;;;17.30;39.54;96724.69;5067997;28;20209;-77
2023/01/02 10:02:52;;;;;;;0.67;0.60;;;;;;;17.26;39.83;96720.84;5068751;28;20275;-76
2023/01/02 10:05:49;;;;;;;0.60;0.60;;;;;;;17.31;39.73;96712.69;5064341;28;20296;-79
2023/01/02 10:08:28;;;;;;;0.60;0.60;;;;;;;17.35;38.80;96711.88;5097583;28;20316;-77
2023/01/02 10:11:03;;;;;;;0.60;0.60;;;;;;;17.36;39.21;96729.91;5060678;28;20250;-78
2023/01/02 10:13:35;;;;;;;0.60;0.60;;;;;;;17.31;39.42;96718.16;5099065;28;20221;-78
2023/01/02 10:16:08;;;;;;;0.63;0.63;;;;;;;17.31;39.48;96709.97;5065935;28;20205;-77
2023/01/02 10:18:39;;;;;;;0.60;0.60;;;;;;;17.31;39.68;96724.44;5062087;28;20238;-78
2023/01/02 10:21:12;;;;;;;1.53;1.00;;;;;;;17.23;39.97;96708.56;5066020;28;20220;-78
2023/01/02 10:23:45;;;;;;;0.60;0.60;;;;;;;17.31;39.90;96720.88;5070261;28;20275;-77
2023/01/02 10:26:17;;;;;;;0.50;0.50;;;;;;;17.28;40.11;96727.69;5097352;28;20224;-78
2023/01/02 10:28:52;;;;;;;0.50;0.50;;;;;;;17.34;39.59;96703.97;5100574;28;20198;-78
2023/01/02 10:31:25;;;;;;;0.63;0.63;;;;;;;17.34;39.54;96720.38;5068526;28;20212;-77
2023/01/02 10:33:57;;;;;;;0.57;0.57;;;;;;;17.37;39.54;96707.00;5074225;28;20194;-78
2023/01/02 10:36:27;;;;;;;0.60;0.60;;;;;;;17.44;39.42;96695.81;5057707;28;20209;-78
2023/01/02 10:38:58;;;;;;;0.50;0.50;;;;;;;17.44;39.08;96703.22;5062144;28;20210;-78
2023/01/02 10:41:26;;;;;;;0.60;0.60;;;;;;;17.37;39.16;96696.06;5061294;28;20273;-78
2023/01/02 10:43:56;;;;;;;0.87;0.60;;;;;;;17.40;39.23;96695.56;5063585;28;20221;-79
2023/01/02 10:46:29;;;;;;;0.60;0.60;;;;;;;17.40;40.17;96692.81;5059043;28;20201;-77
2023/01/02 10:48:57;;;;;;;0.67;0.67;;;;;;;17.37;39.98;96692.50;5060311;28;20205;-78
2023/01/02 10:51:24;;;;;;;1.60;0.63;;;;;;;17.37;39.88;96687.88;5072766;28;20252;-79
2023/01/02 10:54:03;;;;;;;0.50;0.50;;;;;;;17.42;39.57;96694.47;5061280;28;20237;-78
2023/01/02 10:56:34;;;;;;;0.63;0.60;;;;;;;17.43;39.47;96687.94;5075842;28;20282;-78
2023/01/02 10:59:02;;;;;;;0.80;0.80;;;;;;;17.39;40.09;96671.25;5060202;28;20202;-80
2023/01/02 11:01:30;;;;;;;0.50;0.50;;;;;;;17.44;39.40;96681.38;5058000;28;20208;-78
2023/01/02 11:04:12;;;;;;;0.70;0.70;;;;;;;17.48;39.50;96679.75;5089416;28;20225;-78
2023/01/02 11:06:51;;;;;;;0.73;0.73;;;;;;;17.52;38.96;96683.59;5059904;28;20210;-78
2023/01/02 11:09:20;;;;;;;1.27;0.60;;;;;;;17.60;39.24;96677.63;5059384;28;20205;-79
2023/01/02 11:11:53;;;;;;;0.87;0.87;;;;;;;17.61;38.67;96657.41;5060641;28;20217;-80
2023/01/02 11:14:27;;;;;;;0.60;0.60;;;;;;;17.59;38.71;96670.53;5090351;28;20189;-78
2023/01/02 11:17:02;;;;;;;0.70;0.70;;;;;;;17.53;39.16;96683.31;5087217;28;20208;-78
2023/01/02 11:19:29;;;;;;;0.60;0.60;;;;;;;17.43;39.45;96666.91;5061458;28;20251;-79
2023/01/02 11:21:57;;;;;;;0.50;0.50;;;;;;;17.51;39.66;96681.97;5064195;28;20260;-78
2023/01/02 11:24:27;;;;;;;0.60;0.60;;;;;;;17.54;39.41;96681.41;5089676;28;20232;-78
2023/01/02 11:26:55;;;;;;;0.57;0.57;;;;;;;17.62;38.79;96654.44;5064765;28;20224;-79
2023/01/02 11:29:28;;;;;;;0.67;0.60;;;;;;;17.58;39.17;96653.31;5078652;28;20207;-78
2023/01/02 11:32:00;;;;;;;0.57;0.57;;;;;;;17.59;38.77;96654.97;5060420;28;20220;-77
2023/01/02 11:34:32;;;;;;;0.60;0.60;;;;;;;17.64;38.68;96651.44;5063121;28;20213;-78
2023/01/02 11:37:06;;;;;;;0.73;0.60;;;;;;;17.69;38.93;96649.53;5064411;28;20229;-78
2023/01/02 11:39:35;;;;;;;0.83;0.70;;;;;;;17.73;38.83;96672.53;5062812;28;20242;-78
2023/01/02 11:45:08;;;;;;;0.50;0.50;;;;;;;17.84;38.78;96623.38;5061786;28;20221;-78
2023/01/02 11:47:43;;;;;;;0.40;0.40;;;;;;;17.91;38.21;96667.66;5064618;28;20220;-78
2023/01/02 11:50:16;;;;;;;0.60;0.60;;;;;;;17.85;38.57;96649.63;5093253;28;20474;-78
2023/01/02 11:52:50;;;;;;;1.00;0.60;;;;;;;17.94;38.29;96662.50;5065408;28;20198;-78